Time;durP1;ratioP1;P1;durP2;ratioP2;P2;SDS_P1;SDS_P2;PMS_P1;PMS_P2;Temp;Humidity;BMP_temperature;BMP_pressure;BME280_temperature;BME280_humidity;BME280_pressure;Samples;Min_cycle;Max_cycle;Signal;HPM_P1;HPM_P2
2022/11/11 00:00:51;;;;;;;2.63;1.20;;;;;;;10.13;80.78;101902.78;4966122;29;20707;-80
2022/11/11 00:03:19;;;;;;;5.33;1.43;;;;;;;10.15;80.44;101898.44;4966751;28;20214;-80
2022/11/11 00:05:45;;;;;;;3.77;1.20;;;;;;;9.99;80.42;101907.91;4966581;29;20213;-78
2022/11/11 00:08:11;;;;;;;2.30;1.43;;;;;;;10.05;80.64;101897.50;4966960;28;20248;-79
2022/11/11 00:10:38;;;;;;;3.27;1.10;;;;;;;10.04;80.46;101889.66;4966062;28;20230;-79
2022/11/11 00:13:05;;;;;;;3.40;1.60;;;;;;;10.11;80.19;101881.88;4966917;29;20407;-79
2022/11/11 00:15:31;;;;;;;2.43;1.30;;;;;;;10.06;80.05;101898.38;4967655;29;20268;-79
2022/11/11 00:26:20;;;;;;;4.63;1.40;;;;;;;10.12;79.52;101961.03;4967251;29;20230;-80
2022/11/11 00:28:47;;;;;;;4.53;1.30;;;;;;;10.14;79.55;101943.66;4967522;29;20206;-79
2022/11/11 00:31:14;;;;;;;1.90;1.10;;;;;;;10.01;81.07;101914.00;4967472;29;20605;-79
2022/11/11 00:33:40;;;;;;;4.00;1.23;;;;;;;9.88;81.54;101886.94;4967361;28;20234;-78
2022/11/11 00:36:08;;;;;;;2.13;1.00;;;;;;;9.85;81.70;101868.69;4967546;28;20205;-79
2022/11/11 00:38:46;;;;;;;1.73;1.20;;;;;;;9.82;81.88;101873.00;4967634;29;20279;-78
2022/11/11 00:41:14;;;;;;;2.30;1.00;;;;;;;9.81;82.30;101856.47;4966729;29;20205;-80
2022/11/11 00:43:40;;;;;;;1.43;0.93;;;;;;;9.61;83.13;101839.78;4967493;29;20212;-80
2022/11/11 00:51:36;;;;;;;1.80;1.20;;;;;;;9.63;82.59;101817.22;5006697;28;20266;-81
2022/11/11 00:54:03;;;;;;;2.30;1.07;;;;;;;9.66;82.34;101817.25;5005905;28;20212;-79
2022/11/11 00:56:30;;;;;;;1.90;1.30;;;;;;;9.69;82.49;101835.50;5006950;28;20229;-82
2022/11/11 00:58:56;;;;;;;3.50;1.50;;;;;;;9.64;81.92;101839.84;5005596;28;20214;-81
2022/11/11 01:01:23;;;;;;;2.57;1.30;;;;;;;9.62;82.41;101837.22;5005111;28;20694;-80
2022/11/11 01:03:49;;;;;;;3.97;1.30;;;;;;;9.64;81.92;101845.03;5005646;28;20671;-79
2022/11/11 01:06:16;;;;;;;4.77;1.57;;;;;;;9.68;81.72;101852.88;5005635;28;20242;-81
2022/11/11 01:08:43;;;;;;;1.97;1.03;;;;;;;9.70;81.51;101863.34;4995200;23;20808;-77
2022/11/11 01:11:13;;;;;;;5.07;1.27;;;;;;;9.73;81.33;101876.38;4973527;28;20734;-77
2022/11/11 01:13:39;;;;;;;3.13;1.40;;;;;;;9.62;82.89;101851.97;4975730;28;20236;-77
2022/11/11 01:16:08;;;;;;;1.83;1.20;;;;;;;9.59;82.09;101846.72;4975439;28;20212;-77
2022/11/11 01:18:35;;;;;;;3.57;1.33;;;;;;;9.58;82.75;101822.41;4975451;28;20232;-78
2022/11/11 01:21:04;;;;;;;2.97;1.17;;;;;;;9.56;82.78;101823.25;4975276;28;20204;-77
2022/11/11 01:23:32;;;;;;;3.53;1.40;;;;;;;9.49;83.59;101798.88;4975165;28;20213;-77
2022/11/11 01:26:04;;;;;;;4.07;1.20;;;;;;;9.43;81.99;101815.31;4975641;28;20212;-78
2022/11/11 01:28:30;;;;;;;2.20;1.10;;;;;;;9.50;81.63;101847.53;4975749;28;20225;-78
2022/11/11 01:31:00;;;;;;;3.30;1.33;;;;;;;9.52;81.98;101851.03;4975006;28;20242;-77
2022/11/11 01:33:27;;;;;;;2.53;1.13;;;;;;;9.53;81.92;101855.38;4975722;28;20236;-77
2022/11/11 01:35:53;;;;;;;3.60;1.77;;;;;;;9.58;82.19;101863.25;4976444;28;20235;-77
2022/11/11 01:38:20;;;;;;;3.37;1.20;;;;;;;9.66;81.14;101878.09;4976085;28;20231;-78
2022/11/11 01:40:48;;;;;;;2.90;1.47;;;;;;;9.69;80.96;101895.47;4975718;28;20207;-78
2022/11/11 01:43:20;;;;;;;2.03;1.10;;;;;;;9.67;81.37;101897.19;4975568;28;20636;-78
2022/11/11 01:45:50;;;;;;;4.10;1.30;;;;;;;9.49;82.86;101871.84;4976063;28;20213;-77
2022/11/11 01:51:10;;;;;;;4.00;1.10;;;;;;;9.41;83.33;101829.22;4975733;28;20241;-77
2022/11/11 01:53:36;;;;;;;3.60;1.30;;;;;;;9.43;83.61;101820.53;4976036;28;20213;-78
2022/11/11 01:56:04;;;;;;;4.13;1.70;;;;;;;9.34;84.32;101804.84;4976209;28;20213;-78
2022/11/11 01:58:32;;;;;;;1.67;1.30;;;;;;;9.27;84.76;101788.28;4975917;28;20239;-78
2022/11/11 02:01:00;;;;;;;1.50;1.10;;;;;;;9.18;84.87;101776.91;4975062;28;20205;-78
2022/11/11 02:03:29;;;;;;;1.40;1.00;;;;;;;9.13;84.80;101750.81;4975644;28;20206;-78
2022/11/11 02:05:56;;;;;;;2.23;1.33;;;;;;;9.11;85.18;101757.75;4975738;28;20215;-77
2022/11/11 02:08:33;;;;;;;2.10;1.20;;;;;;;9.13;84.88;101741.25;4975644;28;20240;-78
2022/11/11 02:11:04;;;;;;;4.70;1.93;;;;;;;9.22;84.51;101752.66;4974348;28;20239;-78
2022/11/11 02:16:17;;;;;;;4.83;1.47;;;;;;;9.06;84.59;101747.31;4975758;28;20215;-78
2022/11/11 02:18:44;;;;;;;3.03;1.30;;;;;;;9.13;84.80;101740.41;4975603;28;20229;-78
2022/11/11 02:21:16;;;;;;;2.27;1.20;;;;;;;9.02;85.64;101734.22;4974695;28;20208;-77
2022/11/11 02:23:48;;;;;;;1.50;1.00;;;;;;;8.98;84.79;101737.66;4975422;28;20215;-77
2022/11/11 02:26:17;;;;;;;1.70;1.20;;;;;;;8.95;85.57;101734.16;4975264;28;20304;-78
2022/11/11 02:28:44;;;;;;;1.67;1.00;;;;;;;8.98;85.51;101735.94;4975723;28;20232;-77
2022/11/11 02:31:12;;;;;;;3.03;1.27;;;;;;;9.02;85.70;101729.91;4975158;28;20741;-78
2022/11/11 02:33:38;;;;;;;1.73;0.87;;;;;;;8.98;85.94;101719.44;4975002;28;20288;-78
2022/11/11 02:36:06;;;;;;;1.53;1.10;;;;;;;8.95;84.37;101749.78;4974933;28;20653;-78
2022/11/11 02:38:32;;;;;;;2.30;0.97;;;;;;;9.09;82.80;101796.81;4974955;28;20232;-77
2022/11/11 02:43:44;;;;;;;1.60;1.17;;;;;;;9.27;81.59;101856.00;4983313;28;20240;-76
2022/11/11 02:46:10;;;;;;;1.40;1.17;;;;;;;9.25;80.49;101911.59;4983955;28;20207;-76
2022/11/11 02:48:37;;;;;;;1.27;0.93;;;;;;;9.35;79.60;101955.13;4984102;28;20255;-76
2022/11/11 02:51:04;;;;;;;1.53;1.23;;;;;;;9.45;78.53;101989.97;4979570;28;20710;-77
2022/11/11 02:53:31;;;;;;;2.80;1.10;;;;;;;9.44;78.65;102028.19;4975928;28;20212;-77
2022/11/11 02:55:57;;;;;;;3.00;1.37;;;;;;;9.54;79.42;102040.47;4975518;28;20211;-77
2022/11/11 02:58:24;;;;;;;1.87;1.37;;;;;;;9.53;77.20;102083.06;4975350;28;20611;-77
2022/11/11 03:00:51;;;;;;;3.93;1.43;;;;;;;9.63;77.48;102093.56;4975678;28;20212;-77
2022/11/11 03:03:18;;;;;;;2.90;1.20;;;;;;;9.66;78.02;102101.44;4976298;28;20203;-77
2022/11/11 03:05:44;;;;;;;5.37;1.30;;;;;;;9.66;77.20;102115.34;4976167;28;20215;-77
2022/11/11 03:08:11;;;;;;;3.77;1.23;;;;;;;9.70;77.46;102119.72;4975084;28;20243;-77
2022/11/11 03:10:37;;;;;;;2.47;1.10;;;;;;;9.67;76.48;102126.63;4974899;28;20578;-77
2022/11/11 03:13:03;;;;;;;3.00;1.10;;;;;;;9.69;76.77;102143.19;4974769;28;20236;-77
2022/11/11 03:15:30;;;;;;;2.77;1.33;;;;;;;9.74;76.62;102145.00;4975298;28;20210;-77
2022/11/11 03:17:57;;;;;;;1.70;0.97;;;;;;;9.70;76.85;102139.72;4975220;28;20239;-77
2022/11/11 03:23:09;;;;;;;2.97;1.10;;;;;;;9.65;76.80;102103.19;4975217;28;20221;-77
2022/11/11 03:25:37;;;;;;;1.23;1.13;;;;;;;9.61;77.91;102082.25;4974038;28;20207;-76
2022/11/11 03:28:04;;;;;;;1.90;1.30;;;;;;;9.68;77.37;102078.88;4974684;28;20225;-77
2022/11/11 03:30:31;;;;;;;1.67;1.00;;;;;;;9.60;78.63;102080.53;4974124;28;20212;-77
2022/11/11 03:32:58;;;;;;;3.73;1.20;;;;;;;9.55;79.06;102049.16;4974509;28;20233;-76
2022/11/11 03:35:25;;;;;;;1.60;0.97;;;;;;;9.52;77.47;102036.09;4974223;28;20208;-76
2022/11/11 03:40:36;;;;;;;2.50;1.60;;;;;;;9.61;76.52;102067.47;4974541;28;20284;-77
2022/11/11 03:43:02;;;;;;;3.07;1.17;;;;;;;9.63;76.50;102075.31;4974823;28;20210;-77
2022/11/11 03:45:28;;;;;;;3.03;1.40;;;;;;;9.66;76.36;102083.19;4974242;28;20585;-77
2022/11/11 03:47:55;;;;;;;4.97;1.77;;;;;;;9.67;75.83;102103.19;4974182;28;20236;-77
2022/11/11 03:50:23;;;;;;;1.90;1.20;;;;;;;9.68;75.42;102094.50;4974002;28;20216;-77
2022/11/11 03:52:49;;;;;;;1.97;1.30;;;;;;;9.74;75.47;102105.00;4974352;28;20239;-77
2022/11/11 03:55:16;;;;;;;3.40;1.10;;;;;;;9.73;75.33;102098.94;4974488;28;20268;-76
2022/11/11 03:57:45;;;;;;;2.10;1.53;;;;;;;9.72;75.13;102115.41;4974598;28;20258;-77
2022/11/11 04:00:12;;;;;;;2.20;1.27;;;;;;;9.77;75.28;102101.56;4974306;28;20277;-77
2022/11/11 04:10:56;;;;;;;2.30;1.10;;;;;;;9.96;74.04;102142.63;4974690;28;20293;-77
2022/11/11 04:16:07;;;;;;;2.63;1.40;;;;;;;9.98;72.83;102172.22;4977464;28;20210;-77
2022/11/11 04:21:42;;;;;;;1.63;0.90;;;;;;;10.03;73.03;102186.22;4976825;28;20215;-77
2022/11/11 04:26:56;;;;;;;2.20;1.10;;;;;;;10.10;72.80;102189.75;4977361;28;20706;-77
2022/11/11 04:29:28;;;;;;;1.73;1.20;;;;;;;10.10;72.56;102187.13;4977704;28;20212;-77
2022/11/11 04:34:39;;;;;;;2.63;1.20;;;;;;;10.13;72.13;102208.06;4977467;28;20209;-77
2022/11/11 04:37:06;;;;;;;2.13;1.40;;;;;;;10.16;72.11;102209.81;4977164;28;20230;-77
2022/11/11 04:42:17;;;;;;;1.70;1.07;;;;;;;10.18;72.17;102211.59;4976665;28;20766;-77
2022/11/11 04:47:27;;;;;;;1.10;1.00;;;;;;;10.10;71.97;102213.22;4976880;28;20234;-77
2022/11/11 04:49:54;;;;;;;2.20;1.37;;;;;;;10.16;72.12;102228.09;4976241;28;20218;-77
2022/11/11 04:52:28;;;;;;;2.13;1.17;;;;;;;10.21;72.53;102226.38;4976760;28;20235;-77
2022/11/11 04:57:41;;;;;;;3.30;1.47;;;;;;;10.14;72.52;102208.06;4976796;28;20251;-77
2022/11/11 05:00:10;;;;;;;1.40;1.23;;;;;;;10.16;72.53;102207.22;4976423;28;20693;-77
2022/11/11 05:08:54;;;;;;;5.00;1.20;;;;;;;10.13;72.58;102185.44;4952325;28;20219;-78
2022/11/11 05:11:01;;;;;;;1.60;1.30;;;;;;;9.99;72.62;102204.41;4976044;28;20685;-78
2022/11/11 05:21:44;;;;;;;1.93;1.07;;;;;;;10.02;73.46;102162.69;4975202;28;20301;-78
2022/11/11 05:26:56;;;;;;;1.50;1.07;;;;;;;10.01;73.53;102173.97;4976264;28;20692;-78
2022/11/11 05:29:22;;;;;;;1.80;1.23;;;;;;;9.86;73.73;102180.78;4976034;28;20215;-78
2022/11/11 05:31:49;;;;;;;1.30;1.20;;;;;;;9.99;73.93;102173.09;4975528;28;20224;-78
2022/11/11 05:34:15;;;;;;;2.47;1.40;;;;;;;9.84;73.53;102176.41;4976216;28;20209;-78
2022/11/11 05:36:41;;;;;;;2.03;1.40;;;;;;;9.95;73.83;102174.81;4975768;28;20718;-78
2022/11/11 05:39:08;;;;;;;1.20;1.10;;;;;;;9.87;73.89;102169.50;4971868;28;20208;-78
2022/11/11 05:41:35;;;;;;;3.33;1.17;;;;;;;9.89;74.12;102165.19;4965441;28;20207;-77
2022/11/11 05:44:02;;;;;;;4.67;2.23;;;;;;;9.94;74.21;102173.03;4965233;28;20207;-77
2022/11/11 05:46:28;;;;;;;1.43;1.23;;;;;;;9.99;73.90;102175.69;4961218;28;20213;-78
2022/11/11 05:51:45;;;;;;;2.47;1.47;;;;;;;10.02;73.93;102183.56;4953708;28;20324;-77
2022/11/11 05:54:12;;;;;;;2.60;1.70;;;;;;;9.97;73.98;102188.75;4964488;28;20601;-77
2022/11/11 05:56:40;;;;;;;1.70;1.10;;;;;;;9.99;73.91;102186.13;4964122;28;20208;-77
2022/11/11 05:59:07;;;;;;;1.97;1.33;;;;;;;10.00;73.86;102183.56;4964324;28;20193;-77
2022/11/11 06:01:34;;;;;;;3.97;1.93;;;;;;;9.91;74.37;102179.13;4965323;28;20603;-78
2022/11/11 06:04:00;;;;;;;3.67;1.43;;;;;;;9.91;74.46;102170.38;4964155;28;20215;-77
2022/11/11 06:06:26;;;;;;;1.23;1.13;;;;;;;9.82;74.99;102154.66;4965445;28;20206;-78
2022/11/11 06:08:53;;;;;;;2.93;1.60;;;;;;;9.79;75.09;102141.56;4965043;28;20235;-77
2022/11/11 06:11:19;;;;;;;2.90;1.50;;;;;;;9.67;75.70;102124.03;4963425;28;20207;-77
2022/11/11 06:13:48;;;;;;;1.90;1.33;;;;;;;9.59;76.20;102104.81;4964452;28;20221;-77
2022/11/11 06:16:15;;;;;;;1.33;1.13;;;;;;;9.44;76.35;102090.75;4964833;28;20211;-77
2022/11/11 06:18:41;;;;;;;1.87;1.30;;;;;;;9.34;76.57;102075.88;4963532;28;20590;-76
2022/11/11 06:21:08;;;;;;;2.37;1.30;;;;;;;9.32;77.52;102062.81;4963800;28;20203;-78
2022/11/11 06:23:34;;;;;;;1.83;1.20;;;;;;;9.40;77.50;102043.78;4967044;28;20202;-78
2022/11/11 06:26:14;;;;;;;4.87;1.60;;;;;;;9.37;77.40;102044.59;4966578;28;20204;-78
2022/11/11 06:28:41;;;;;;;5.00;1.80;;;;;;;9.42;77.26;102047.28;4976037;28;20320;-78
2022/11/11 06:31:09;;;;;;;2.90;1.63;;;;;;;9.43;76.77;102064.66;4974009;28;20618;-76
2022/11/11 06:33:36;;;;;;;2.67;1.40;;;;;;;9.48;76.24;102084.72;4974758;28;20228;-78
2022/11/11 06:36:03;;;;;;;5.27;2.10;;;;;;;9.51;75.97;102100.41;4974523;28;20707;-77
2022/11/11 06:38:30;;;;;;;3.20;1.70;;;;;;;9.53;76.33;102118.66;4973553;28;20235;-78
2022/11/11 06:40:57;;;;;;;2.47;1.60;;;;;;;9.47;76.31;102119.44;4974016;28;20214;-78
2022/11/11 06:43:23;;;;;;;2.57;1.60;;;;;;;9.46;76.67;102122.06;4974556;28;20211;-77
2022/11/11 06:45:51;;;;;;;2.70;1.50;;;;;;;9.46;76.56;102117.72;4974392;28;20588;-77
2022/11/11 06:48:19;;;;;;;3.47;1.20;;;;;;;9.39;77.26;102115.00;4973843;28;20228;-78
2022/11/11 06:50:45;;;;;;;1.90;1.47;;;;;;;9.28;77.76;102092.28;4974814;28;20205;-78
2022/11/11 06:53:13;;;;;;;2.27;1.20;;;;;;;9.22;78.60;102070.50;4973974;28;20238;-77
2022/11/11 06:55:40;;;;;;;2.50;1.23;;;;;;;9.17;79.11;102046.97;4974871;28;20212;-77
2022/11/11 06:58:07;;;;;;;3.90;1.13;;;;;;;9.13;79.18;102029.56;4974061;28;20224;-77
2022/11/11 07:00:34;;;;;;;1.73;1.20;;;;;;;9.06;79.16;102019.94;4972984;28;20209;-77
2022/11/11 07:03:01;;;;;;;2.80;1.67;;;;;;;8.97;79.41;102014.59;4975113;28;20236;-79
2022/11/11 07:05:28;;;;;;;2.37;1.30;;;;;;;8.93;79.76;102000.66;4973584;28;20208;-78
2022/11/11 07:07:56;;;;;;;2.10;1.50;;;;;;;8.91;79.88;101994.53;5034948;23;20206;-78
2022/11/11 07:10:22;;;;;;;2.27;1.37;;;;;;;8.86;80.27;101994.50;4994210;28;20205;-80
2022/11/11 07:12:49;;;;;;;2.10;1.40;;;;;;;8.77;80.38;101993.50;4995993;28;20224;-80
2022/11/11 07:15:16;;;;;;;2.70;1.73;;;;;;;8.87;80.38;101984.94;4995625;28;20524;-80
2022/11/11 07:17:42;;;;;;;2.33;1.50;;;;;;;8.84;80.73;101984.91;4996263;28;20207;-79
2022/11/11 07:20:10;;;;;;;2.23;1.20;;;;;;;8.88;80.95;101973.66;4995833;28;20223;-80
2022/11/11 07:22:38;;;;;;;1.63;1.10;;;;;;;8.86;81.08;101952.84;4995782;28;20215;-80
2022/11/11 07:25:05;;;;;;;2.20;1.30;;;;;;;8.94;80.54;101960.75;4996974;28;20215;-79
2022/11/11 07:27:32;;;;;;;2.60;1.60;;;;;;;9.00;80.66;101962.53;4996839;28;20207;-80
2022/11/11 07:29:58;;;;;;;2.10;1.40;;;;;;;9.02;79.78;101973.84;4997136;28;20215;-80
2022/11/11 07:32:25;;;;;;;2.50;1.43;;;;;;;8.97;79.92;101988.53;4996440;28;20224;-79
2022/11/11 07:34:51;;;;;;;4.07;1.60;;;;;;;9.07;79.67;101995.63;4996578;28;20622;-79
2022/11/11 07:37:18;;;;;;;2.03;1.30;;;;;;;9.15;79.10;102002.66;4995713;28;20212;-78
2022/11/11 07:39:46;;;;;;;3.40;1.33;;;;;;;9.21;79.12;102027.91;4997249;28;20224;-79
2022/11/11 07:42:12;;;;;;;3.17;1.50;;;;;;;9.19;78.35;102058.28;4995657;28;20207;-80
2022/11/11 07:44:39;;;;;;;1.87;1.37;;;;;;;9.33;77.88;102072.34;4997005;28;20216;-80
2022/11/11 07:47:05;;;;;;;2.40;1.77;;;;;;;9.35;78.29;102090.63;5000455;28;20211;-79
2022/11/11 07:49:32;;;;;;;2.10;1.20;;;;;;;9.42;77.91;102097.69;5000139;28;20238;-79
2022/11/11 07:51:59;;;;;;;3.17;1.63;;;;;;;9.43;77.12;102128.09;4999801;28;20215;-81
2022/11/11 07:54:26;;;;;;;2.70;1.50;;;;;;;9.53;77.34;102147.31;5000757;28;20706;-80
2022/11/11 07:56:54;;;;;;;3.23;1.70;;;;;;;9.52;77.48;102143.84;5001020;28;20230;-80
2022/11/11 07:59:20;;;;;;;1.90;1.47;;;;;;;9.61;77.66;102143.09;5000468;28;20636;-80
2022/11/11 08:01:47;;;;;;;1.40;1.30;;;;;;;9.59;78.16;102133.50;5000382;28;20218;-80
2022/11/11 08:04:13;;;;;;;4.03;2.23;;;;;;;9.63;78.02;102117.03;5000043;28;20208;-80
2022/11/11 08:06:39;;;;;;;2.77;1.50;;;;;;;9.61;78.15;102092.69;5000233;28;20218;-79
2022/11/11 08:09:06;;;;;;;1.70;1.17;;;;;;;9.57;77.65;102096.09;4999344;28;20258;-80
2022/11/11 08:14:18;;;;;;;2.67;1.53;;;;;;;9.69;78.37;102067.56;4999743;28;20240;-80
2022/11/11 08:16:44;;;;;;;3.10;1.47;;;;;;;9.75;78.05;102091.09;4999479;28;20203;-80
2022/11/11 08:19:11;;;;;;;1.83;1.30;;;;;;;9.75;77.46;102114.56;4999982;28;20711;-80
2022/11/11 08:21:37;;;;;;;2.50;1.23;;;;;;;9.81;77.44;102125.09;4998919;28;20210;-80
2022/11/11 08:24:04;;;;;;;1.47;1.30;;;;;;;9.83;77.74;102122.47;4998707;28;20204;-79
2022/11/11 08:26:30;;;;;;;1.80;1.47;;;;;;;9.88;77.59;102132.13;4998981;28;20220;-80
2022/11/11 08:28:57;;;;;;;2.63;1.13;;;;;;;9.94;76.49;102150.44;4998662;28;20232;-80
2022/11/11 08:31:25;;;;;;;2.10;1.33;;;;;;;10.03;76.70;102157.50;4996936;28;20211;-80
2022/11/11 08:33:51;;;;;;;1.70;1.30;;;;;;;10.12;76.05;102173.25;4997853;28;20230;-80
2022/11/11 08:36:18;;;;;;;2.37;1.47;;;;;;;10.16;75.39;102181.97;4997024;28;20809;-80
2022/11/11 08:38:44;;;;;;;2.13;1.30;;;;;;;10.21;75.54;102193.38;4997640;28;20225;-79
2022/11/11 08:41:11;;;;;;;2.10;1.27;;;;;;;10.23;75.74;102211.66;4996824;28;20208;-79
2022/11/11 08:43:37;;;;;;;2.13;1.13;;;;;;;10.31;75.45;102223.94;4997787;28;20218;-80
2022/11/11 08:46:05;;;;;;;2.07;1.50;;;;;;;10.39;75.13;102237.09;4997556;28;20210;-80
2022/11/11 08:48:33;;;;;;;3.03;1.20;;;;;;;10.43;74.68;102249.31;4997580;28;20623;-81
2022/11/11 08:50:59;;;;;;;1.30;1.00;;;;;;;10.41;74.90;102248.44;4997474;28;20213;-79
2022/11/11 08:53:27;;;;;;;2.47;1.37;;;;;;;10.47;73.89;102258.06;4997017;28;20232;-80
2022/11/11 08:55:54;;;;;;;1.53;1.30;;;;;;;10.54;74.22;102257.25;4994913;28;20241;-80
2022/11/11 08:58:20;;;;;;;2.03;1.20;;;;;;;10.57;73.54;102262.53;4988643;28;20319;-79
2022/11/11 09:00:47;;;;;;;2.40;1.50;;;;;;;10.62;73.29;102281.69;4986870;28;20212;-80
2022/11/11 09:03:13;;;;;;;2.47;1.60;;;;;;;10.68;73.84;102287.03;4987754;28;20192;-80
2022/11/11 09:05:41;;;;;;;1.73;1.00;;;;;;;10.69;72.87;102288.75;4988803;28;20204;-81
2022/11/11 09:08:08;;;;;;;1.60;1.07;;;;;;;10.76;72.93;102304.50;4987594;28;20230;-81
2022/11/11 09:10:35;;;;;;;2.07;1.30;;;;;;;10.77;72.44;102307.13;4986784;28;20678;-80
2022/11/11 09:13:02;;;;;;;1.43;1.20;;;;;;;10.79;72.23;102325.44;4986069;28;20732;-80
2022/11/11 09:15:29;;;;;;;1.73;1.20;;;;;;;10.86;72.50;102328.13;4989369;28;20204;-81
2022/11/11 09:17:55;;;;;;;2.20;1.40;;;;;;;10.94;73.76;102322.94;4989435;28;20246;-79
2022/11/11 09:20:22;;;;;;;2.50;1.40;;;;;;;10.99;72.20;102296.88;4988495;28;20213;-81
2022/11/11 09:22:51;;;;;;;1.50;1.10;;;;;;;11.09;73.57;102309.16;4988155;28;20209;-80
2022/11/11 09:25:18;;;;;;;1.77;1.27;;;;;;;11.10;71.90;102350.13;4985763;28;20288;-80
2022/11/11 09:27:53;;;;;;;2.30;1.10;;;;;;;11.04;71.38;102381.41;4985568;28;20611;-79
2022/11/11 09:30:20;;;;;;;1.47;1.00;;;;;;;11.16;72.26;102375.44;4987647;28;20207;-79
2022/11/11 09:32:46;;;;;;;1.83;1.17;;;;;;;11.25;71.22;102404.28;4988726;28;20228;-79
2022/11/11 09:35:13;;;;;;;3.27;1.43;;;;;;;11.36;72.20;102402.66;4988514;28;20770;-79
2022/11/11 09:37:39;;;;;;;1.10;1.00;;;;;;;11.44;72.47;102387.06;4988672;28;20218;-80
2022/11/11 09:40:15;;;;;;;1.90;1.27;;;;;;;11.38;72.14;102380.03;4987470;28;20224;-80
2022/11/11 09:42:48;;;;;;;2.63;1.30;;;;;;;11.46;72.35;102373.13;4987914;28;20227;-80
2022/11/11 09:45:21;;;;;;;1.83;1.10;;;;;;;11.52;72.71;102361.84;4984241;28;20205;-80
2022/11/11 09:47:59;;;;;;;3.27;1.37;;;;;;;11.52;72.47;102377.53;4984917;28;20706;-78
2022/11/11 09:50:28;;;;;;;2.63;1.20;;;;;;;11.57;72.19;102377.56;4984865;28;20201;-80
2022/11/11 09:53:00;;;;;;;1.30;1.20;;;;;;;11.52;73.38;102357.47;4985342;28;20221;-81
2022/11/11 09:55:33;;;;;;;1.67;1.30;;;;;;;11.57;73.54;102340.94;4985643;28;20205;-81
2022/11/11 09:58:05;;;;;;;2.20;1.73;;;;;;;11.53;72.66;102366.19;4987409;28;20278;-79
2022/11/11 10:00:36;;;;;;;2.03;1.00;;;;;;;11.52;72.18;102367.06;4993833;28;20740;-80
2022/11/11 10:03:12;;;;;;;1.33;1.10;;;;;;;11.58;72.74;102363.63;4996378;28;20212;-80
2022/11/11 10:05:44;;;;;;;4.17;1.40;;;;;;;11.58;73.23;102356.66;4978151;28;20217;-80
2022/11/11 10:08:16;;;;;;;1.33;1.10;;;;;;;11.69;74.52;102310.53;4976065;28;20245;-80
2022/11/11 10:10:46;;;;;;;1.70;1.60;;;;;;;11.77;74.69;102273.06;4975462;28;20246;-79
2022/11/11 10:13:14;;;;;;;1.53;1.40;;;;;;;11.85;73.92;102292.28;4975201;28;20258;-81
2022/11/11 10:15:51;;;;;;;1.63;1.20;;;;;;;11.83;73.45;102278.31;4975494;28;20206;-79
2022/11/11 10:18:31;;;;;;;3.53;1.87;;;;;;;11.88;73.39;102315.88;4992647;28;20240;-78
2022/11/11 10:20:58;;;;;;;2.47;1.30;;;;;;;11.89;73.67;102315.91;4995158;28;20213;-78
2022/11/11 10:23:29;;;;;;;2.03;1.30;;;;;;;11.98;73.57;102324.69;4995080;28;20205;-78
2022/11/11 10:26:00;;;;;;;1.60;1.13;;;;;;;11.88;71.56;102369.06;4994712;28;20209;-79
2022/11/11 10:28:32;;;;;;;2.43;1.27;;;;;;;11.97;72.30;102386.63;4995422;28;20235;-80
2022/11/11 10:31:01;;;;;;;2.60;1.30;;;;;;;11.98;72.62;102390.09;4995125;28;20251;-79
2022/11/11 10:33:32;;;;;;;1.43;1.30;;;;;;;12.05;71.54;102400.63;4994978;28;20244;-79
2022/11/11 10:36:04;;;;;;;2.03;1.60;;;;;;;12.11;72.72;102407.66;4995019;28;20213;-79
2022/11/11 10:38:40;;;;;;;2.33;1.30;;;;;;;12.07;71.56;102413.72;4995242;28;20620;-80
2022/11/11 10:41:17;;;;;;;2.57;1.00;;;;;;;12.11;71.95;102429.47;4995147;28;20213;-80
2022/11/11 10:43:46;;;;;;;1.20;1.10;;;;;;;12.18;73.01;102417.28;4995840;28;20217;-80
2022/11/11 10:46:17;;;;;;;4.33;0.90;;;;;;;12.26;73.34;102378.91;4995176;28;20259;-81
2022/11/11 10:48:53;;;;;;;1.53;0.90;;;;;;;12.19;72.22;102384.13;4995337;28;20240;-80
2022/11/11 10:51:19;;;;;;;2.63;1.20;;;;;;;12.27;72.87;102385.94;4994761;28;20209;-80
2022/11/11 10:53:56;;;;;;;1.43;1.33;;;;;;;12.34;73.06;102376.34;4995942;28;20296;-80
2022/11/11 10:56:29;;;;;;;3.47;1.57;;;;;;;12.42;72.64;102382.50;4995070;28;20197;-79
2022/11/11 10:59:03;;;;;;;1.27;0.90;;;;;;;12.43;72.90;102386.88;4995018;28;20237;-80
2022/11/11 11:01:34;;;;;;;2.23;0.93;;;;;;;12.45;72.90;102376.41;4994952;28;20209;-80
2022/11/11 11:04:06;;;;;;;1.43;1.10;;;;;;;12.49;71.31;102394.75;4996111;28;20300;-80
2022/11/11 11:06:37;;;;;;;0.80;0.80;;;;;;;12.50;70.67;102413.97;4995128;28;20208;-80
2022/11/11 11:09:12;;;;;;;1.17;0.80;;;;;;;12.54;70.28;102436.69;4994703;28;20240;-80
2022/11/11 11:11:45;;;;;;;0.70;0.70;;;;;;;12.58;70.08;102441.06;4994546;28;20691;-80
2022/11/11 11:14:19;;;;;;;1.07;0.90;;;;;;;12.66;70.21;102456.84;4994016;28;20226;-80
2022/11/11 11:16:54;;;;;;;2.60;1.10;;;;;;;12.70;69.91;102469.97;4994994;28;20226;-80
2022/11/11 11:19:22;;;;;;;2.17;1.20;;;;;;;12.78;69.85;102488.34;4995821;28;20255;-77
2022/11/11 11:21:54;;;;;;;1.33;0.70;;;;;;;12.79;69.73;102484.84;4997876;28;20216;-79
2022/11/11 11:24:23;;;;;;;0.87;0.70;;;;;;;12.86;69.39;102497.13;4997329;28;20688;-77
2022/11/11 11:26:53;;;;;;;1.43;0.80;;;;;;;12.90;69.11;102493.66;4997813;28;20235;-79
2022/11/11 11:29:32;;;;;;;0.97;0.80;;;;;;;12.97;68.99;102502.41;4998284;28;20236;-79
2022/11/11 11:32:15;;;;;;;1.30;0.80;;;;;;;12.98;67.74;102519.00;4998681;28;20307;-80
2022/11/11 11:34:47;;;;;;;1.93;0.70;;;;;;;12.98;67.01;102553.09;4996277;28;20228;-79
2022/11/11 11:37:14;;;;;;;1.17;0.60;;;;;;;12.99;67.35;102560.09;4998685;28;20582;-79
2022/11/11 11:39:41;;;;;;;2.10;0.80;;;;;;;13.00;67.49;102573.22;4998160;28;20228;-79
2022/11/11 11:42:26;;;;;;;1.10;0.63;;;;;;;13.05;66.72;102596.84;4997472;28;20213;-80
2022/11/11 11:44:53;;;;;;;1.30;0.70;;;;;;;13.03;66.37;102581.09;4998145;28;20200;-79
2022/11/11 11:47:35;;;;;;;1.70;0.70;;;;;;;13.15;66.74;102585.53;4996353;28;20675;-78
2022/11/11 11:50:21;;;;;;;0.97;0.77;;;;;;;13.22;65.00;102610.91;4987617;28;20260;-78
2022/11/11 11:52:59;;;;;;;0.70;0.70;;;;;;;13.25;65.50;102646.75;4990434;28;21595;-79
2022/11/11 11:55:32;;;;;;;1.60;0.80;;;;;;;13.28;64.61;102649.41;4992489;28;20224;-79
2022/11/11 11:58:19;;;;;;;0.67;0.63;;;;;;;13.41;65.13;102646.00;4989245;28;20227;-78
2022/11/11 12:00:56;;;;;;;0.77;0.70;;;;;;;13.57;65.97;102628.56;4990138;28;20204;-77
2022/11/11 12:03:53;;;;;;;0.70;0.70;;;;;;;13.80;62.39;102612.91;4990132;28;20214;-79
2022/11/11 12:06:25;;;;;;;0.80;0.77;;;;;;;14.03;60.73;102719.75;4988661;28;20210;-80
2022/11/11 12:09:03;;;;;;;1.97;0.60;;;;;;;14.48;60.78;102768.03;4990395;28;20235;-79
2022/11/11 12:11:39;;;;;;;0.87;0.70;;;;;;;14.32;59.13;102860.84;4988679;28;20202;-79
2022/11/11 12:14:38;;;;;;;1.17;0.70;;;;;;;14.58;60.17;102874.97;4987797;28;20210;-78
2022/11/11 12:17:14;;;;;;;1.30;0.80;;;;;;;14.46;60.52;102869.66;4982603;28;20201;-78
2022/11/11 12:19:54;;;;;;;1.57;1.00;;;;;;;14.31;59.55;102894.13;4986843;28;20305;-79
2022/11/11 12:22:41;;;;;;;1.40;0.73;;;;;;;14.38;59.77;102893.25;4986615;28;20696;-79
2022/11/11 12:25:14;;;;;;;0.90;0.73;;;;;;;14.33;59.37;102881.88;4988413;28;20347;-79
2022/11/11 12:27:55;;;;;;;1.53;0.90;;;;;;;14.34;60.15;102880.13;4986280;28;20206;-78
2022/11/11 12:30:27;;;;;;;0.60;0.60;;;;;;;14.39;60.12;102842.47;4987343;28;20199;-78
2022/11/11 12:33:17;;;;;;;1.83;0.73;;;;;;;14.40;60.53;102831.09;4986428;28;20210;-79
2022/11/11 12:35:56;;;;;;;0.67;0.57;;;;;;;14.36;60.42;102829.31;4987078;28;20675;-78
2022/11/11 12:38:39;;;;;;;1.33;0.77;;;;;;;14.23;61.18;102810.00;4986386;28;20238;-78
2022/11/11 12:41:18;;;;;;;1.03;0.80;;;;;;;14.20;61.21;102804.72;4987134;28;20207;-79
2022/11/11 12:43:54;;;;;;;1.13;0.83;;;;;;;14.16;60.90;102781.97;4987408;28;20205;-77
2022/11/11 12:46:33;;;;;;;1.73;1.00;;;;;;;14.22;61.33;102783.72;4985738;28;20221;-78
2022/11/11 12:49:11;;;;;;;1.50;0.67;;;;;;;14.18;59.89;102801.22;4985027;28;20635;-78
2022/11/11 12:51:51;;;;;;;3.33;0.80;;;;;;;13.93;60.27;102823.84;4985843;28;20199;-79
2022/11/11 12:54:28;;;;;;;1.07;0.77;;;;;;;13.96;59.98;102789.75;4986390;28;20234;-78
2022/11/11 12:57:01;;;;;;;1.47;1.00;;;;;;;14.01;60.35;102798.53;4984829;28;20213;-77